This demonstration page uses our WeatherBlox Daily Observations layout. Learn more.

38.88101, -77.10428

Hourly Observations for August 12, 2016

Temp ( °F °C ) Dew Point ( °F °C ) Humidity (%) Winds ( mph kmh ) Pressure ( in mb ) Visibility ( mi km ) Precip ( " mm )
12:52 am 00:52 Mostly Clear 83 28.3 75 23.9 77 77 S 8 13 30 1016 10 16.09344 0 0
1:52 am 01:52 Mostly Clear 82 27.8 75 23.9 79 79 S 9 15 30 1016 10 16.09344 0 0
2:52 am 02:52 Clear 81 27.2 74 23.3 79 79 S 9 15 29.97 1015 10 16.09344 0 0
3:52 am 03:52 Clear 81 27.2 74 23.3 79 79 S 7 11 29.97 1015 9 14.484096 0 0
4:52 am 04:52 Partly Cloudy 81 27.2 73 22.8 77 77 SSW 10 17 29.97 1015 10 16.09344 0 0
5:52 am 05:52 Partly Cloudy 81 27.2 73 22.8 77 77 SSW 9 15 30 1016 10 16.09344 0 0
6:52 am 06:52 Partly Cloudy 81 27.2 73 22.8 77 77 SSW 10 17 30 1016 9 14.484096 0 0
7:52 am 07:52 Partly Cloudy 83 28.3 73 22.8 72 72 SSW 12 19 30 1016 9 14.484096 0 0
8:52 am 08:52 Partly Cloudy 86 30 74 23.3 67 67 SSW 10 17 30 1016 10 16.09344 0 0
9:52 am 09:52 Partly Cloudy 89 31.7 74 23.3 61 61 SSW 10 17 30 1016 10 16.09344 0 0
10:52 am 10:52 Partly Cloudy 92 33.3 75 23.9 58 58 S 9 15 30 1016 10 16.09344 0 0
11:52 am 11:52 Partly Cloudy with Light Rain 92 33.3 77 25 62 62 S 13 20 29.97 1015 10 16.09344 0.001 0.001
12:52 pm 12:52 Partly Cloudy 95 35 76 24.4 54 54 S 14 22 29.94 1014 10 16.09344 0 0
1:52 pm 13:52 Mostly Cloudy 97 36.1 74 23.3 48 48 S 9 15 29.94 1014 10 16.09344 0 0
2:52 pm 14:52 Partly Cloudy 96 35.6 76 24.4 52 52 S 14 22 29.91 1013 10 16.09344 0 0
3:52 pm 15:52 Partly Cloudy 98 36.7 74 23.3 46 46 SSW 15 24 29.91 1013 10 16.09344 0 0
4:52 pm 16:52 Partly Cloudy 97 36.1 75 23.9 49 49 SSW 17 28 29.91 1013 10 16.09344 0 0
5:52 pm 17:52 Partly Cloudy 94 34.4 74 23.3 52 52 S 15 24 29.88 1012 10 16.09344 0 0
6:52 pm 18:52 Partly Cloudy 94 34.4 74 23.3 52 52 SSW 16 26 29.91 1013 10 16.09344 0 0
7:52 pm 19:52 Partly Cloudy 92 33.3 75 23.9 58 58 SSW 14 22 29.91 1013 10 16.09344 0 0
8:52 pm 20:52 Mostly Clear 89 31.7 78 25.6 70 70 S 9 15 29.91 1013 10 16.09344 0 0
9:52 pm 21:52 Mostly Clear 88 31.1 76 24.4 68 68 S 9 15 29.94 1014 10 16.09344 0 0
10:52 pm 22:52 Mostly Clear 86 30 78 25.6 77 77 S 9 15 29.94 1014 10 16.09344 0 0
11:52 pm 23:52 Clear 85 29.4 78 25.6 80 80 S 7 11 29.94 1014 10 16.09344 0 0

Powered by AerisWeather